createdAt,value
2022-12-20T00:00:10.643Z,1.36
2022-12-20T00:03:14.261Z,1.43
2022-12-20T00:06:18.513Z,1.48
2022-12-20T00:09:21.664Z,1.51
2022-12-20T00:12:24.763Z,1.53
2022-12-20T00:15:27.653Z,1.53
2022-12-20T00:18:30.876Z,1.54
2022-12-20T00:21:35.260Z,1.58
2022-12-20T00:24:38.487Z,1.58
2022-12-20T00:27:41.578Z,1.61
2022-12-20T00:30:44.495Z,1.62
2022-12-20T00:33:49.483Z,1.63
2022-12-20T00:36:52.497Z,1.66
2022-12-20T00:39:55.484Z,1.68
2022-12-20T00:42:58.471Z,1.70
2022-12-20T00:46:02.073Z,1.72
2022-12-20T00:49:06.805Z,1.73
2022-12-20T00:52:09.796Z,1.75
2022-12-20T00:55:12.907Z,1.78
2022-12-20T00:58:16.183Z,1.78
2022-12-20T01:01:22.908Z,1.77
2022-12-20T01:04:25.952Z,1.75
2022-12-20T01:07:28.942Z,1.75
2022-12-20T01:10:32.544Z,1.74
2022-12-20T01:13:37.982Z,1.74
2022-12-20T01:16:44.253Z,1.74
2022-12-20T01:19:46.324Z,1.74
2022-12-20T01:22:50.437Z,1.73
2022-12-20T01:25:53.428Z,1.73
2022-12-20T01:28:59.518Z,1.71
2022-12-20T01:32:02.448Z,1.67
2022-12-20T01:35:06.786Z,1.64
2022-12-20T01:38:09.553Z,1.63
2022-12-20T01:41:16.340Z,1.60
2022-12-20T01:44:57.745Z,1.61
2022-12-20T01:48:01.186Z,1.62
2022-12-20T01:51:04.606Z,1.63
2022-12-20T01:54:13.470Z,1.65
2022-12-20T01:57:21.005Z,1.68
2022-12-20T02:00:24.178Z,1.76
2022-12-20T02:03:29.671Z,1.83
2022-12-20T02:06:32.511Z,1.89
2022-12-20T02:09:37.837Z,1.95
2022-12-20T02:12:42.711Z,1.99
2022-12-20T02:15:53.734Z,2.02
2022-12-20T02:19:07.499Z,2.04
2022-12-20T02:22:23.513Z,2.03
2022-12-20T02:25:57.848Z,2.04
2022-12-20T02:29:20.776Z,2.07
2022-12-20T02:32:28.581Z,2.08
2022-12-20T02:35:36.019Z,2.11
2022-12-20T02:38:39.096Z,2.11
2022-12-20T02:41:45.418Z,2.12
2022-12-20T02:45:08.376Z,2.15
2022-12-20T02:48:12.059Z,2.19
2022-12-20T02:51:17.742Z,2.19
2022-12-20T02:54:21.112Z,2.18
2022-12-20T02:57:32.968Z,2.17
2022-12-20T03:00:42.565Z,2.16
2022-12-20T03:03:45.977Z,2.15
2022-12-20T03:07:01.096Z,2.13
2022-12-20T03:10:04.630Z,2.13
2022-12-20T03:13:07.455Z,2.14
2022-12-20T03:16:10.543Z,2.15
2022-12-20T03:19:13.343Z,2.16
2022-12-20T03:22:16.118Z,2.17
2022-12-20T03:25:18.912Z,2.16
2022-12-20T03:28:21.685Z,2.14
2022-12-20T03:31:24.606Z,2.12
2022-12-20T03:34:27.996Z,2.11
2022-12-20T03:37:30.830Z,2.09
2022-12-20T03:40:33.633Z,2.09
2022-12-20T03:43:36.446Z,2.09
2022-12-20T03:46:39.320Z,2.11
2022-12-20T03:49:42.133Z,2.15
2022-12-20T03:52:44.961Z,2.17
2022-12-20T03:55:47.749Z,2.16
2022-12-20T03:58:50.513Z,2.14
2022-12-20T04:01:53.392Z,2.14
2022-12-20T04:04:56.205Z,2.18
2022-12-20T04:07:58.997Z,2.24
2022-12-20T04:11:17.043Z,2.27
2022-12-20T04:14:19.925Z,2.30
2022-12-20T04:17:22.731Z,2.33
2022-12-20T04:20:25.488Z,2.34
2022-12-20T04:23:28.244Z,2.33
2022-12-20T04:26:31.455Z,2.30
2022-12-20T04:29:34.235Z,2.27
2022-12-20T04:32:37.036Z,2.29
2022-12-20T04:35:39.920Z,2.34
2022-12-20T04:38:42.679Z,2.36
2022-12-20T04:41:45.489Z,2.37
2022-12-20T04:44:48.264Z,2.34
2022-12-20T04:47:51.257Z,2.28
2022-12-20T04:50:55.392Z,2.29
2022-12-20T04:53:58.193Z,2.31
2022-12-20T04:57:01.052Z,2.34
2022-12-20T05:00:05.244Z,2.38
2022-12-20T05:03:08.395Z,2.41
2022-12-20T05:06:12.045Z,2.45
2022-12-20T05:09:14.800Z,2.48
2022-12-20T05:12:17.567Z,2.50
2022-12-20T05:15:20.326Z,2.50
2022-12-20T05:18:23.921Z,2.47
2022-12-20T05:21:44.773Z,2.45
2022-12-20T05:25:06.088Z,2.45
2022-12-20T05:28:08.934Z,2.46
2022-12-20T05:31:11.893Z,2.44
2022-12-20T05:34:14.800Z,2.41
2022-12-20T05:37:17.905Z,2.38
2022-12-20T05:40:20.671Z,2.39
2022-12-20T05:43:23.438Z,2.38
2022-12-20T05:46:26.300Z,2.35
2022-12-20T05:49:29.147Z,2.35
2022-12-20T05:52:32.601Z,2.30
2022-12-20T05:55:35.355Z,2.24
2022-12-20T05:58:38.402Z,2.20
2022-12-20T06:01:41.289Z,2.20
2022-12-20T06:04:44.231Z,2.19
2022-12-20T06:07:47.008Z,2.20
2022-12-20T06:10:50.787Z,2.22
2022-12-20T06:13:53.627Z,2.20
2022-12-20T06:16:56.429Z,2.17
2022-12-20T06:19:59.244Z,2.15
2022-12-20T06:23:02.321Z,2.12
2022-12-20T06:26:08.620Z,2.08
2022-12-20T06:29:13.561Z,2.07
2022-12-20T06:32:16.321Z,2.08
2022-12-20T06:35:19.079Z,2.08
2022-12-20T06:38:21.891Z,2.07
2022-12-20T06:41:24.655Z,2.04
2022-12-20T06:44:27.403Z,2.02
2022-12-20T06:47:30.457Z,2.02
2022-12-20T06:50:33.331Z,2.02
2022-12-20T06:53:36.079Z,1.98
2022-12-20T06:56:41.575Z,2.00
2022-12-20T06:59:44.685Z,2.05
2022-12-20T07:02:47.595Z,2.09
2022-12-20T07:05:53.439Z,2.13
2022-12-20T07:08:56.229Z,2.15
2022-12-20T07:11:59.208Z,2.15
2022-12-20T07:15:01.987Z,2.15
2022-12-20T07:18:06.208Z,2.14
2022-12-20T07:21:09.077Z,2.15
2022-12-20T07:24:11.869Z,2.16
2022-12-20T07:27:14.633Z,2.19
2022-12-20T07:30:19.568Z,2.21
2022-12-20T07:33:22.355Z,2.25
2022-12-20T07:36:25.159Z,2.28
2022-12-20T07:39:28.637Z,2.34
2022-12-20T07:42:36.097Z,2.39
2022-12-20T07:45:42.181Z,2.43
2022-12-20T07:48:45.419Z,2.46
2022-12-20T07:51:52.275Z,2.47
2022-12-20T07:54:59.736Z,2.48
2022-12-20T07:58:06.538Z,2.48
2022-12-20T08:01:12.204Z,2.50
2022-12-20T08:04:20.581Z,2.54
2022-12-20T08:07:24.399Z,2.57
2022-12-20T08:10:28.413Z,2.62
2022-12-20T08:13:32.612Z,2.70
2022-12-20T08:16:35.783Z,2.74
2022-12-20T08:19:38.626Z,2.80
2022-12-20T08:22:41.410Z,2.85
2022-12-20T08:25:44.366Z,2.90
2022-12-20T08:28:47.162Z,2.91
2022-12-20T08:31:50.774Z,2.92
2022-12-20T08:34:54.732Z,2.92
2022-12-20T08:37:57.636Z,2.97
2022-12-20T08:41:04.472Z,3.03
2022-12-20T08:44:07.575Z,3.07
2022-12-20T08:47:10.444Z,3.13
2022-12-20T08:50:13.381Z,3.22
2022-12-20T08:53:16.216Z,3.30
2022-12-20T08:56:19.718Z,3.34
2022-12-20T08:59:22.612Z,3.39
2022-12-20T09:02:25.551Z,3.46
2022-12-20T09:05:28.516Z,3.52
2022-12-20T09:08:31.310Z,3.55
2022-12-20T09:11:34.569Z,3.58
2022-12-20T09:14:38.204Z,3.61
2022-12-20T09:17:41.052Z,3.64
2022-12-20T09:20:44.988Z,3.70
2022-12-20T09:23:50.156Z,3.78
2022-12-20T09:26:53.605Z,3.88
2022-12-20T09:29:57.088Z,3.98
2022-12-20T09:33:08.586Z,4.07
2022-12-20T09:36:16.647Z,4.15
2022-12-20T09:39:20.117Z,4.23
2022-12-20T09:42:26.779Z,4.32
2022-12-20T09:45:30.729Z,4.39
2022-12-20T09:48:37.769Z,4.44
2022-12-20T09:51:58.394Z,4.44
2022-12-20T09:55:13.083Z,4.44
2022-12-20T09:58:41.541Z,4.45
2022-12-20T10:01:47.039Z,4.49
2022-12-20T10:04:51.486Z,4.51
2022-12-20T10:08:03.496Z,4.48
2022-12-20T10:11:16.752Z,4.47
2022-12-20T10:14:37.279Z,4.48
2022-12-20T10:18:05.175Z,4.48
2022-12-20T10:21:16.381Z,4.51
2022-12-20T10:24:25.037Z,4.55
2022-12-20T10:27:28.863Z,4.64
2022-12-20T10:30:34.983Z,4.73
2022-12-20T10:33:38.789Z,4.82
2022-12-20T10:36:42.289Z,4.86
2022-12-20T10:39:49.929Z,4.88
2022-12-20T10:42:53.726Z,4.89
2022-12-20T10:46:00.540Z,4.90
2022-12-20T10:49:23.218Z,4.89
2022-12-20T10:52:28.853Z,4.87
2022-12-20T10:55:37.755Z,4.85
2022-12-20T10:58:41.647Z,4.81
2022-12-20T11:01:47.007Z,4.78
2022-12-20T11:05:00.122Z,4.74
2022-12-20T11:08:35.334Z,4.73
2022-12-20T11:11:39.523Z,4.75
2022-12-20T11:14:44.696Z,4.78
2022-12-20T11:17:51.442Z,4.80
2022-12-20T11:21:03.701Z,4.83
2022-12-20T11:24:14.331Z,4.87
2022-12-20T11:27:29.899Z,4.94
2022-12-20T11:30:43.967Z,5.09
2022-12-20T11:34:00.172Z,5.23
2022-12-20T11:37:23.355Z,5.34
2022-12-20T11:40:32.424Z,5.47
2022-12-20T11:44:24.596Z,5.57
2022-12-20T11:48:01.490Z,5.68
2022-12-20T11:51:15.274Z,5.75
2022-12-20T11:54:26.499Z,5.77
2022-12-20T11:58:01.769Z,5.79
2022-12-20T12:01:08.043Z,5.77
2022-12-20T12:04:18.190Z,5.74
2022-12-20T12:07:25.476Z,5.69
2022-12-20T12:10:34.240Z,5.62
2022-12-20T12:13:40.185Z,5.54
2022-12-20T12:16:49.079Z,5.46
2022-12-20T12:19:57.071Z,5.38
2022-12-20T12:23:05.856Z,5.34
2022-12-20T12:26:15.094Z,5.28
2022-12-20T12:29:19.704Z,5.26
2022-12-20T12:32:30.659Z,5.23
2022-12-20T12:35:54.023Z,5.20
2022-12-20T12:39:27.129Z,5.18
2022-12-20T12:42:47.666Z,5.15
2022-12-20T12:45:55.733Z,5.07
2022-12-20T12:49:05.118Z,4.99
2022-12-20T12:52:28.752Z,4.93
2022-12-20T12:55:42.916Z,4.91
2022-12-20T12:59:13.624Z,4.88
2022-12-20T13:02:52.467Z,4.87
2022-12-20T13:05:56.007Z,4.80
2022-12-20T13:09:20.217Z,4.74
2022-12-20T13:12:58.097Z,4.71
2022-12-20T13:17:09.469Z,4.67
2022-12-20T13:19:56.958Z,4.60
2022-12-20T13:23:17.148Z,4.53
2022-12-20T13:26:50.474Z,4.45
2022-12-20T13:29:58.222Z,4.38
2022-12-20T13:33:22.856Z,4.34
2022-12-20T13:36:37.147Z,4.33
2022-12-20T13:39:40.688Z,4.31
2022-12-20T13:42:44.985Z,4.29
2022-12-20T13:45:50.757Z,4.27
2022-12-20T13:49:02.420Z,4.24
2022-12-20T13:52:16.684Z,4.18
2022-12-20T14:25:27.095Z,2.91
2022-12-20T14:28:35.843Z,2.81
2022-12-20T14:31:43.018Z,2.74
2022-12-20T14:34:47.544Z,2.65
2022-12-20T14:37:56.537Z,2.54
2022-12-20T14:41:00.164Z,2.49
2022-12-20T14:44:14.082Z,2.43
2022-12-20T14:47:22.994Z,2.36
2022-12-20T14:50:30.355Z,2.31
2022-12-20T14:53:36.096Z,2.26
2022-12-20T14:56:46.993Z,2.21
2022-12-20T15:00:01.331Z,2.12
2022-12-20T15:03:17.293Z,1.98
2022-12-20T15:06:37.908Z,1.91
2022-12-20T15:09:42.073Z,1.88
2022-12-20T15:12:46.183Z,1.87
2022-12-20T15:15:49.818Z,1.83
2022-12-20T15:18:55.329Z,1.78
2022-12-20T15:22:00.085Z,1.71
2022-12-20T15:25:05.826Z,1.70
2022-12-20T15:28:17.779Z,1.74
2022-12-20T15:31:30.705Z,1.77
2022-12-20T15:34:38.436Z,1.80
2022-12-20T15:37:41.902Z,1.83
2022-12-20T15:40:46.664Z,1.85
2022-12-20T15:43:52.450Z,1.88
2022-12-20T15:46:56.340Z,1.89
2022-12-20T15:50:00.025Z,1.90
2022-12-20T15:53:03.726Z,1.90
2022-12-20T15:56:16.837Z,1.91
2022-12-20T15:59:57.882Z,1.91
2022-12-20T16:02:45.230Z,1.93
2022-12-20T16:05:50.633Z,1.95
2022-12-20T16:08:54.092Z,1.95
2022-12-20T16:11:57.700Z,1.97
2022-12-20T16:15:01.246Z,1.95
2022-12-20T16:18:05.208Z,1.94
2022-12-20T16:21:15.152Z,1.95
2022-12-20T16:24:20.668Z,1.93
2022-12-20T16:27:24.408Z,1.92
2022-12-20T16:30:28.492Z,1.90
2022-12-20T16:33:32.035Z,1.91
2022-12-20T16:36:35.733Z,1.93
2022-12-20T16:39:39.451Z,1.94
2022-12-20T16:42:43.233Z,1.94
2022-12-20T16:45:46.788Z,1.92
2022-12-20T16:48:50.420Z,1.90
2022-12-20T16:51:53.913Z,1.91
2022-12-20T16:54:57.587Z,1.91
2022-12-20T16:58:01.213Z,1.90
2022-12-20T17:01:04.957Z,1.90
2022-12-20T17:04:14.221Z,1.82
2022-12-20T17:07:17.812Z,1.70
2022-12-20T17:10:21.685Z,1.55
2022-12-20T17:13:25.432Z,1.43
2022-12-20T17:16:29.114Z,1.46
2022-12-20T17:19:32.760Z,1.50
2022-12-20T17:25:58.279Z,1.55
2022-12-20T17:29:02.599Z,1.56
2022-12-20T17:32:18.688Z,1.55
2022-12-20T17:35:25.828Z,1.55
2022-12-20T17:38:29.380Z,1.52
2022-12-20T17:41:33.824Z,1.43
2022-12-20T17:44:37.409Z,1.40
2022-12-20T17:47:40.911Z,1.40
2022-12-20T17:50:44.392Z,1.35
2022-12-20T17:53:50.968Z,1.30
2022-12-20T17:56:55.810Z,1.27
2022-12-20T17:59:59.395Z,1.24
2022-12-20T18:03:03.105Z,1.22
2022-12-20T18:06:09.315Z,1.23
2022-12-20T18:09:15.276Z,1.22
2022-12-20T18:12:18.794Z,1.23
2022-12-20T18:15:22.371Z,1.25
2022-12-20T18:18:25.957Z,1.28
2022-12-20T18:21:29.665Z,1.30
2022-12-20T18:24:33.431Z,1.29
2022-12-20T18:27:42.296Z,1.24
2022-12-20T18:30:45.801Z,1.18
2022-12-20T18:33:55.657Z,1.15
2022-12-20T18:37:01.643Z,1.17
2022-12-20T18:40:08.083Z,1.19
2022-12-20T18:43:11.584Z,1.21
2022-12-20T18:46:16.472Z,1.21
2022-12-20T18:49:20.539Z,1.23
2022-12-20T18:52:24.132Z,1.23
2022-12-20T18:55:27.642Z,1.22
2022-12-20T18:58:31.463Z,1.23
2022-12-20T19:01:36.229Z,1.19
2022-12-20T19:04:39.787Z,1.13
2022-12-20T19:07:43.349Z,1.07
2022-12-20T19:10:47.554Z,1.03
2022-12-20T19:13:51.647Z,0.99
2022-12-20T19:16:55.360Z,1.02
2022-12-20T19:19:58.932Z,1.05
2022-12-20T19:23:02.634Z,1.07
2022-12-20T19:26:08.337Z,1.10
2022-12-20T19:29:11.894Z,1.13
2022-12-20T19:32:15.467Z,1.13
2022-12-20T19:35:53.447Z,1.12
2022-12-20T19:38:44.855Z,1.11
2022-12-20T19:42:14.000Z,1.10
2022-12-20T19:45:12.926Z,1.08
2022-12-20T19:48:16.404Z,1.07
2022-12-20T19:51:21.200Z,1.10
2022-12-20T19:54:24.673Z,1.13
2022-12-20T19:57:28.128Z,1.15
2022-12-20T20:00:31.732Z,1.16
2022-12-20T20:03:36.152Z,1.17
2022-12-20T20:06:39.773Z,1.17
2022-12-20T20:09:43.283Z,1.16
2022-12-20T20:12:46.778Z,1.17
2022-12-20T20:15:54.891Z,1.18
2022-12-20T20:18:58.678Z,1.18
2022-12-20T20:22:02.192Z,1.17
2022-12-20T20:25:07.144Z,1.15
2022-12-20T20:28:10.612Z,1.14
2022-12-20T20:31:15.829Z,1.12
2022-12-20T20:34:19.326Z,1.11
2022-12-20T20:37:22.877Z,1.11
2022-12-20T20:40:26.522Z,1.11
2022-12-20T20:43:31.866Z,1.09
2022-12-20T20:46:35.612Z,1.09
2022-12-20T20:49:39.237Z,1.09
2022-12-20T20:52:43.352Z,1.09
2022-12-20T20:55:47.162Z,1.10
2022-12-20T20:58:51.901Z,1.09
2022-12-20T21:01:55.612Z,1.08
2022-12-20T21:05:52.591Z,1.07
2022-12-20T21:08:22.877Z,1.05
2022-12-20T21:11:27.651Z,1.03
2022-12-20T21:15:12.282Z,1.00
2022-12-20T21:17:54.995Z,0.98
2022-12-20T21:20:58.501Z,0.96
2022-12-20T21:24:02.093Z,0.95
2022-12-20T21:27:05.670Z,0.92
2022-12-20T21:30:11.207Z,0.86
2022-12-20T21:33:14.756Z,0.82
2022-12-20T21:36:19.297Z,0.75
2022-12-20T21:39:23.049Z,0.67
2022-12-20T21:42:26.630Z,0.62
2022-12-20T21:45:30.228Z,0.59
2022-12-20T21:48:33.795Z,0.57
2022-12-20T21:51:37.341Z,0.53
2022-12-20T21:54:42.352Z,0.49
2022-12-20T21:57:47.568Z,0.47
2022-12-20T22:00:54.838Z,0.44
2022-12-20T22:04:00.850Z,0.39
2022-12-20T22:07:04.422Z,0.32
2022-12-20T22:10:10.156Z,0.27
2022-12-20T22:13:14.334Z,0.29
2022-12-20T22:16:20.306Z,0.32
2022-12-20T22:19:23.889Z,0.38
2022-12-20T22:22:27.462Z,0.36
2022-12-20T22:25:31.180Z,0.29
2022-12-20T22:28:34.656Z,0.28
2022-12-20T22:31:38.323Z,0.28
2022-12-20T22:34:41.962Z,0.29
2022-12-20T22:37:45.594Z,0.29
2022-12-20T22:40:49.121Z,0.28
2022-12-20T22:43:53.213Z,0.23
2022-12-20T22:47:06.319Z,0.17
2022-12-20T22:50:11.884Z,0.14
2022-12-20T22:53:15.379Z,0.12
2022-12-20T22:56:20.514Z,0.08
2022-12-20T22:59:24.218Z,0.04
2022-12-20T23:02:28.246Z,-0.01
2022-12-20T23:05:31.873Z,-0.05
2022-12-20T23:08:36.737Z,-0.07
2022-12-20T23:11:58.810Z,-0.10
2022-12-20T23:15:20.747Z,-0.16
2022-12-20T23:18:24.299Z,-0.25
2022-12-20T23:21:46.394Z,-0.25
2022-12-20T23:24:49.835Z,-0.26
2022-12-20T23:27:53.778Z,-0.25
2022-12-20T23:30:57.398Z,-0.24
2022-12-20T23:34:01.413Z,-0.27
2022-12-20T23:37:05.063Z,-0.32
2022-12-20T23:40:11.409Z,-0.38
2022-12-20T23:43:13.863Z,-0.42
2022-12-20T23:46:19.269Z,-0.46
2022-12-20T23:49:22.920Z,-0.52
2022-12-20T23:52:26.562Z,-0.59
2022-12-20T23:55:30.070Z,-0.63
2022-12-20T23:58:33.846Z,-0.65
